sensor_id;sensor_type;location;lat;lon;timestamp;P1;durP1;ratioP1;P2;durP2;ratioP2
38130;SDS011;23947;51.894;4.622;2023-03-01T00:01:47;27.50;;;14.50;;
38130;SDS011;23947;51.894;4.622;2023-03-01T00:04:13;25.55;;;15.73;;
38130;SDS011;23947;51.894;4.622;2023-03-01T00:06:39;24.55;;;14.73;;
38130;SDS011;23947;51.894;4.622;2023-03-01T00:09:07;28.47;;;15.90;;
38130;SDS011;23947;51.894;4.622;2023-03-01T00:11:33;28.00;;;14.77;;
38130;SDS011;23947;51.894;4.622;2023-03-01T00:14:00;27.05;;;15.65;;
38130;SDS011;23947;51.894;4.622;2023-03-01T00:16:30;25.10;;;15.15;;
38130;SDS011;23947;51.894;4.622;2023-03-01T00:19:03;28.58;;;16.17;;
38130;SDS011;23947;51.894;4.622;2023-03-01T00:21:29;30.38;;;17.20;;
38130;SDS011;23947;51.894;4.622;2023-03-01T00:23:55;31.30;;;16.88;;
38130;SDS011;23947;51.894;4.622;2023-03-01T00:26:21;30.10;;;17.02;;
38130;SDS011;23947;51.894;4.622;2023-03-01T00:28:49;29.48;;;17.25;;
38130;SDS011;23947;51.894;4.622;2023-03-01T00:31:15;29.17;;;16.83;;
38130;SDS011;23947;51.894;4.622;2023-03-01T00:33:45;27.10;;;16.58;;
38130;SDS011;23947;51.894;4.622;2023-03-01T00:36:12;27.25;;;16.65;;
38130;SDS011;23947;51.894;4.622;2023-03-01T00:38:40;29.40;;;16.77;;
38130;SDS011;23947;51.894;4.622;2023-03-01T00:41:12;29.73;;;16.75;;
38130;SDS011;23947;51.894;4.622;2023-03-01T00:43:40;27.92;;;15.85;;
38130;SDS011;23947;51.894;4.622;2023-03-01T00:46:07;28.95;;;16.67;;
38130;SDS011;23947;51.894;4.622;2023-03-01T00:48:35;32.17;;;17.45;;
38130;SDS011;23947;51.894;4.622;2023-03-01T00:51:07;34.95;;;17.60;;
38130;SDS011;23947;51.894;4.622;2023-03-01T00:53:34;30.77;;;16.50;;
38130;SDS011;23947;51.894;4.622;2023-03-01T00:56:00;29.60;;;17.63;;
38130;SDS011;23947;51.894;4.622;2023-03-01T00:58:26;28.85;;;17.30;;
38130;SDS011;23947;51.894;4.622;2023-03-01T01:00:52;28.10;;;16.65;;
38130;SDS011;23947;51.894;4.622;2023-03-01T01:03:18;29.83;;;16.98;;
38130;SDS011;23947;51.894;4.622;2023-03-01T01:05:44;27.33;;;16.20;;
38130;SDS011;23947;51.894;4.622;2023-03-01T01:08:10;28.50;;;16.75;;
38130;SDS011;23947;51.894;4.622;2023-03-01T01:10:35;29.08;;;17.30;;
38130;SDS011;23947;51.894;4.622;2023-03-01T01:13:02;27.70;;;15.85;;
38130;SDS011;23947;51.894;4.622;2023-03-01T01:15:28;26.27;;;16.33;;
38130;SDS011;23947;51.894;4.622;2023-03-01T01:17:54;28.45;;;17.13;;
38130;SDS011;23947;51.894;4.622;2023-03-01T01:20:19;29.65;;;16.58;;
38130;SDS011;23947;51.894;4.622;2023-03-01T01:22:45;32.00;;;17.55;;
38130;SDS011;23947;51.894;4.622;2023-03-01T01:25:11;27.90;;;16.25;;
38130;SDS011;23947;51.894;4.622;2023-03-01T01:27:37;31.95;;;16.92;;
38130;SDS011;23947;51.894;4.622;2023-03-01T01:30:03;30.15;;;18.00;;
38130;SDS011;23947;51.894;4.622;2023-03-01T01:32:29;33.33;;;19.08;;
38130;SDS011;23947;51.894;4.622;2023-03-01T01:34:55;34.28;;;19.17;;
38130;SDS011;23947;51.894;4.622;2023-03-01T01:37:21;30.38;;;17.58;;
38130;SDS011;23947;51.894;4.622;2023-03-01T01:39:47;31.67;;;19.15;;
38130;SDS011;23947;51.894;4.622;2023-03-01T01:42:16;30.75;;;19.17;;
38130;SDS011;23947;51.894;4.622;2023-03-01T01:44:45;32.63;;;18.10;;
38130;SDS011;23947;51.894;4.622;2023-03-01T01:49:49;32.15;;;19.45;;
38130;SDS011;23947;51.894;4.622;2023-03-01T01:54:54;36.80;;;20.75;;
38130;SDS011;23947;51.894;4.622;2023-03-01T01:57:23;36.15;;;21.38;;
38130;SDS011;23947;51.894;4.622;2023-03-01T01:59:58;36.58;;;21.20;;
38130;SDS011;23947;51.894;4.622;2023-03-01T02:02:27;34.72;;;21.33;;
38130;SDS011;23947;51.894;4.622;2023-03-01T02:04:55;40.53;;;22.40;;
38130;SDS011;23947;51.894;4.622;2023-03-01T02:07:30;40.13;;;22.65;;
38130;SDS011;23947;51.894;4.622;2023-03-01T02:09:55;42.47;;;24.13;;
38130;SDS011;23947;51.894;4.622;2023-03-01T02:12:23;41.42;;;24.48;;
38130;SDS011;23947;51.894;4.622;2023-03-01T02:14:49;43.78;;;25.40;;
38130;SDS011;23947;51.894;4.622;2023-03-01T02:17:15;43.25;;;25.15;;
38130;SDS011;23947;51.894;4.622;2023-03-01T02:22:36;50.72;;;26.95;;
38130;SDS011;23947;51.894;4.622;2023-03-01T02:30:35;42.45;;;25.75;;
38130;SDS011;23947;51.894;4.622;2023-03-01T02:33:02;45.25;;;26.83;;
38130;SDS011;23947;51.894;4.622;2023-03-01T02:35:29;47.90;;;26.95;;
38130;SDS011;23947;51.894;4.622;2023-03-01T02:37:57;43.50;;;26.50;;
38130;SDS011;23947;51.894;4.622;2023-03-01T02:40:25;40.90;;;26.23;;
38130;SDS011;23947;51.894;4.622;2023-03-01T02:42:58;43.42;;;26.17;;
38130;SDS011;23947;51.894;4.622;2023-03-01T02:45:24;45.88;;;26.70;;
38130;SDS011;23947;51.894;4.622;2023-03-01T02:47:53;46.03;;;27.02;;
38130;SDS011;23947;51.894;4.622;2023-03-01T02:52:53;48.50;;;26.40;;
38130;SDS011;23947;51.894;4.622;2023-03-01T02:55:41;43.15;;;25.63;;
38130;SDS011;23947;51.894;4.622;2023-03-01T02:58:07;42.60;;;26.02;;
38130;SDS011;23947;51.894;4.622;2023-03-01T03:00:37;45.92;;;26.17;;
38130;SDS011;23947;51.894;4.622;2023-03-01T03:03:10;44.55;;;26.27;;
38130;SDS011;23947;51.894;4.622;2023-03-01T03:05:39;48.15;;;27.17;;
38130;SDS011;23947;51.894;4.622;2023-03-01T03:08:04;43.60;;;25.50;;
38130;SDS011;23947;51.894;4.622;2023-03-01T03:10:33;43.05;;;26.25;;
38130;SDS011;23947;51.894;4.622;2023-03-01T03:13:08;43.47;;;25.50;;
38130;SDS011;23947;51.894;4.622;2023-03-01T03:15:36;41.75;;;24.77;;
38130;SDS011;23947;51.894;4.622;2023-03-01T03:18:04;42.28;;;24.90;;
38130;SDS011;23947;51.894;4.622;2023-03-01T03:20:33;46.03;;;25.48;;
38130;SDS011;23947;51.894;4.622;2023-03-01T03:22:59;44.00;;;24.08;;
38130;SDS011;23947;51.894;4.622;2023-03-01T03:25:26;41.35;;;24.75;;
38130;SDS011;23947;51.894;4.622;2023-03-01T03:27:53;37.40;;;23.55;;
38130;SDS011;23947;51.894;4.622;2023-03-01T03:30:27;47.72;;;25.90;;
38130;SDS011;23947;51.894;4.622;2023-03-01T03:32:54;44.38;;;25.00;;
38130;SDS011;23947;51.894;4.622;2023-03-01T03:35:28;43.03;;;25.30;;
38130;SDS011;23947;51.894;4.622;2023-03-01T03:37:55;37.22;;;23.17;;
38130;SDS011;23947;51.894;4.622;2023-03-01T03:40:29;43.70;;;24.38;;
38130;SDS011;23947;51.894;4.622;2023-03-01T03:43:01;39.60;;;22.73;;
38130;SDS011;23947;51.894;4.622;2023-03-01T03:45:28;43.33;;;22.70;;
38130;SDS011;23947;51.894;4.622;2023-03-01T03:47:53;40.70;;;22.00;;
38130;SDS011;23947;51.894;4.622;2023-03-01T03:50:19;40.65;;;24.48;;
38130;SDS011;23947;51.894;4.622;2023-03-01T03:52:45;41.72;;;22.95;;
38130;SDS011;23947;51.894;4.622;2023-03-01T03:55:11;36.70;;;22.10;;
38130;SDS011;23947;51.894;4.622;2023-03-01T03:57:38;39.20;;;22.42;;
38130;SDS011;23947;51.894;4.622;2023-03-01T04:00:06;41.80;;;22.70;;
38130;SDS011;23947;51.894;4.622;2023-03-01T04:02:41;36.75;;;21.60;;
38130;SDS011;23947;51.894;4.622;2023-03-01T04:05:07;35.78;;;21.95;;
38130;SDS011;23947;51.894;4.622;2023-03-01T04:07:35;37.25;;;21.08;;
38130;SDS011;23947;51.894;4.622;2023-03-01T04:10:05;35.97;;;21.88;;
38130;SDS011;23947;51.894;4.622;2023-03-01T04:12:33;38.10;;;22.60;;
38130;SDS011;23947;51.894;4.622;2023-03-01T04:15:00;40.50;;;22.73;;
38130;SDS011;23947;51.894;4.622;2023-03-01T04:17:26;36.47;;;21.23;;
38130;SDS011;23947;51.894;4.622;2023-03-01T04:19:52;34.83;;;20.58;;
38130;SDS011;23947;51.894;4.622;2023-03-01T04:22:18;35.72;;;21.15;;
38130;SDS011;23947;51.894;4.622;2023-03-01T04:24:44;38.83;;;22.42;;
38130;SDS011;23947;51.894;4.622;2023-03-01T04:27:10;38.67;;;21.10;;
38130;SDS011;23947;51.894;4.622;2023-03-01T04:29:36;38.92;;;21.33;;
38130;SDS011;23947;51.894;4.622;2023-03-01T04:32:02;34.25;;;19.67;;
38130;SDS011;23947;51.894;4.622;2023-03-01T04:34:28;38.80;;;20.60;;
38130;SDS011;23947;51.894;4.622;2023-03-01T04:36:54;34.53;;;20.85;;
38130;SDS011;23947;51.894;4.622;2023-03-01T04:39:20;34.85;;;20.48;;
38130;SDS011;23947;51.894;4.622;2023-03-01T04:41:46;33.47;;;20.60;;
38130;SDS011;23947;51.894;4.622;2023-03-01T04:44:12;45.85;;;23.40;;
38130;SDS011;23947;51.894;4.622;2023-03-01T04:46:38;35.38;;;21.48;;
38130;SDS011;23947;51.894;4.622;2023-03-01T04:49:04;39.70;;;21.45;;
38130;SDS011;23947;51.894;4.622;2023-03-01T04:51:30;39.08;;;21.23;;
38130;SDS011;23947;51.894;4.622;2023-03-01T04:53:57;39.65;;;22.52;;
38130;SDS011;23947;51.894;4.622;2023-03-01T04:56:23;35.70;;;20.85;;
38130;SDS011;23947;51.894;4.622;2023-03-01T04:58:49;39.88;;;21.83;;
38130;SDS011;23947;51.894;4.622;2023-03-01T05:01:16;37.35;;;22.38;;
38130;SDS011;23947;51.894;4.622;2023-03-01T05:03:44;40.80;;;24.90;;
38130;SDS011;23947;51.894;4.622;2023-03-01T05:06:15;45.50;;;24.70;;
38130;SDS011;23947;51.894;4.622;2023-03-01T05:08:42;43.03;;;24.88;;
38130;SDS011;23947;51.894;4.622;2023-03-01T05:11:08;42.55;;;24.90;;
38130;SDS011;23947;51.894;4.622;2023-03-01T05:13:34;44.55;;;23.52;;
38130;SDS011;23947;51.894;4.622;2023-03-01T05:16:02;40.72;;;22.38;;
38130;SDS011;23947;51.894;4.622;2023-03-01T05:18:29;37.70;;;21.73;;
38130;SDS011;23947;51.894;4.622;2023-03-01T05:21:01;39.42;;;22.02;;
38130;SDS011;23947;51.894;4.622;2023-03-01T05:23:32;36.25;;;21.75;;
38130;SDS011;23947;51.894;4.622;2023-03-01T05:25:59;45.40;;;26.98;;
38130;SDS011;23947;51.894;4.622;2023-03-01T05:28:29;63.25;;;34.50;;
38130;SDS011;23947;51.894;4.622;2023-03-01T05:30:56;61.35;;;33.95;;
38130;SDS011;23947;51.894;4.622;2023-03-01T05:33:22;55.50;;;31.90;;
38130;SDS011;23947;51.894;4.622;2023-03-01T05:35:48;52.13;;;28.27;;
38130;SDS011;23947;51.894;4.622;2023-03-01T05:38:15;54.23;;;29.80;;
38130;SDS011;23947;51.894;4.622;2023-03-01T05:40:42;51.60;;;27.45;;
38130;SDS011;23947;51.894;4.622;2023-03-01T05:43:09;45.47;;;24.92;;
38130;SDS011;23947;51.894;4.622;2023-03-01T05:45:37;47.42;;;25.77;;
38130;SDS011;23947;51.894;4.622;2023-03-01T05:48:04;45.90;;;25.92;;
38130;SDS011;23947;51.894;4.622;2023-03-01T05:50:32;41.67;;;25.05;;
38130;SDS011;23947;51.894;4.622;2023-03-01T05:53:03;42.13;;;23.90;;
38130;SDS011;23947;51.894;4.622;2023-03-01T05:55:34;42.63;;;23.52;;
38130;SDS011;23947;51.894;4.622;2023-03-01T05:58:07;43.63;;;24.25;;
38130;SDS011;23947;51.894;4.622;2023-03-01T06:00:41;44.00;;;24.40;;
38130;SDS011;23947;51.894;4.622;2023-03-01T06:03:09;43.30;;;23.77;;
38130;SDS011;23947;51.894;4.622;2023-03-01T06:05:36;45.88;;;23.10;;
38130;SDS011;23947;51.894;4.622;2023-03-01T06:08:02;43.35;;;23.67;;
38130;SDS011;23947;51.894;4.622;2023-03-01T06:10:28;41.00;;;23.77;;
38130;SDS011;23947;51.894;4.622;2023-03-01T06:12:54;41.55;;;23.58;;
38130;SDS011;23947;51.894;4.622;2023-03-01T06:15:20;41.17;;;22.95;;
38130;SDS011;23947;51.894;4.622;2023-03-01T06:17:46;40.38;;;22.75;;
38130;SDS011;23947;51.894;4.622;2023-03-01T06:20:13;42.80;;;24.73;;
38130;SDS011;23947;51.894;4.622;2023-03-01T06:22:41;42.83;;;23.75;;
38130;SDS011;23947;51.894;4.622;2023-03-01T06:25:08;43.53;;;23.17;;
38130;SDS011;23947;51.894;4.622;2023-03-01T06:27:35;39.15;;;21.80;;
38130;SDS011;23947;51.894;4.622;2023-03-01T06:30:01;37.58;;;22.83;;
38130;SDS011;23947;51.894;4.622;2023-03-01T06:32:27;39.23;;;22.30;;
38130;SDS011;23947;51.894;4.622;2023-03-01T06:34:53;41.58;;;22.85;;
38130;SDS011;23947;51.894;4.622;2023-03-01T06:37:18;39.45;;;22.15;;
38130;SDS011;23947;51.894;4.622;2023-03-01T06:39:44;41.72;;;23.48;;
38130;SDS011;23947;51.894;4.622;2023-03-01T06:42:10;40.63;;;22.67;;
38130;SDS011;23947;51.894;4.622;2023-03-01T06:44:36;45.30;;;24.60;;
38130;SDS011;23947;51.894;4.622;2023-03-01T06:47:02;46.63;;;23.23;;
38130;SDS011;23947;51.894;4.622;2023-03-01T06:49:28;39.63;;;23.23;;
38130;SDS011;23947;51.894;4.622;2023-03-01T06:51:54;40.35;;;23.55;;
38130;SDS011;23947;51.894;4.622;2023-03-01T06:54:20;41.83;;;23.03;;
38130;SDS011;23947;51.894;4.622;2023-03-01T06:56:47;39.87;;;22.93;;
38130;SDS011;23947;51.894;4.622;2023-03-01T06:59:13;37.70;;;22.23;;
38130;SDS011;23947;51.894;4.622;2023-03-01T07:01:38;46.57;;;23.63;;
38130;SDS011;23947;51.894;4.622;2023-03-01T07:04:04;48.80;;;24.40;;
38130;SDS011;23947;51.894;4.622;2023-03-01T07:06:30;42.70;;;23.37;;
38130;SDS011;23947;51.894;4.622;2023-03-01T07:08:55;42.80;;;24.10;;
38130;SDS011;23947;51.894;4.622;2023-03-01T07:11:21;45.22;;;25.48;;
38130;SDS011;23947;51.894;4.622;2023-03-01T07:13:47;43.50;;;24.65;;
38130;SDS011;23947;51.894;4.622;2023-03-01T07:16:13;42.72;;;23.92;;
38130;SDS011;23947;51.894;4.622;2023-03-01T07:18:39;43.63;;;23.90;;
38130;SDS011;23947;51.894;4.622;2023-03-01T07:21:09;46.78;;;25.52;;
38130;SDS011;23947;51.894;4.622;2023-03-01T07:23:37;42.13;;;24.85;;
38130;SDS011;23947;51.894;4.622;2023-03-01T07:26:03;42.45;;;24.63;;
38130;SDS011;23947;51.894;4.622;2023-03-01T07:28:28;44.07;;;25.57;;
38130;SDS011;23947;51.894;4.622;2023-03-01T07:30:55;40.83;;;22.77;;
38130;SDS011;23947;51.894;4.622;2023-03-01T07:33:26;43.55;;;23.48;;
38130;SDS011;23947;51.894;4.622;2023-03-01T07:35:55;41.72;;;23.30;;
38130;SDS011;23947;51.894;4.622;2023-03-01T07:38:22;44.85;;;25.60;;
38130;SDS011;23947;51.894;4.622;2023-03-01T07:40:48;42.00;;;24.23;;
38130;SDS011;23947;51.894;4.622;2023-03-01T07:43:14;43.20;;;22.85;;
38130;SDS011;23947;51.894;4.622;2023-03-01T07:45:39;41.47;;;21.50;;
38130;SDS011;23947;51.894;4.622;2023-03-01T07:48:05;35.70;;;20.58;;
38130;SDS011;23947;51.894;4.622;2023-03-01T07:50:31;37.10;;;20.20;;
38130;SDS011;23947;51.894;4.622;2023-03-01T07:52:56;36.22;;;19.58;;
38130;SDS011;23947;51.894;4.622;2023-03-01T07:55:22;33.92;;;19.02;;
38130;SDS011;23947;51.894;4.622;2023-03-01T07:57:48;31.92;;;18.45;;
38130;SDS011;23947;51.894;4.622;2023-03-01T08:00:13;32.10;;;18.87;;
38130;SDS011;23947;51.894;4.622;2023-03-01T08:02:39;34.58;;;17.95;;
38130;SDS011;23947;51.894;4.622;2023-03-01T08:05:06;31.15;;;17.15;;
38130;SDS011;23947;51.894;4.622;2023-03-01T08:07:33;34.50;;;18.55;;
38130;SDS011;23947;51.894;4.622;2023-03-01T08:09:59;33.35;;;18.73;;
38130;SDS011;23947;51.894;4.622;2023-03-01T08:12:25;29.23;;;18.05;;
38130;SDS011;23947;51.894;4.622;2023-03-01T08:14:52;29.08;;;17.25;;
38130;SDS011;23947;51.894;4.622;2023-03-01T08:17:18;37.33;;;19.20;;
38130;SDS011;23947;51.894;4.622;2023-03-01T08:19:44;30.30;;;16.05;;
38130;SDS011;23947;51.894;4.622;2023-03-01T08:22:10;27.67;;;14.73;;
38130;SDS011;23947;51.894;4.622;2023-03-01T08:24:35;24.63;;;14.50;;
38130;SDS011;23947;51.894;4.622;2023-03-01T08:27:01;22.42;;;12.80;;
38130;SDS011;23947;51.894;4.622;2023-03-01T08:29:27;24.92;;;14.43;;
38130;SDS011;23947;51.894;4.622;2023-03-01T08:31:55;24.77;;;14.20;;
38130;SDS011;23947;51.894;4.622;2023-03-01T08:34:21;21.13;;;12.73;;
38130;SDS011;23947;51.894;4.622;2023-03-01T08:36:46;22.35;;;11.82;;
38130;SDS011;23947;51.894;4.622;2023-03-01T08:39:14;20.55;;;12.20;;
38130;SDS011;23947;51.894;4.622;2023-03-01T08:41:40;20.35;;;12.18;;
38130;SDS011;23947;51.894;4.622;2023-03-01T08:44:07;118.30;;;62.53;;
38130;SDS011;23947;51.894;4.622;2023-03-01T08:46:37;27.92;;;14.98;;
38130;SDS011;23947;51.894;4.622;2023-03-01T08:49:08;22.20;;;12.00;;
38130;SDS011;23947;51.894;4.622;2023-03-01T08:51:37;18.55;;;10.73;;
38130;SDS011;23947;51.894;4.622;2023-03-01T08:54:03;15.45;;;9.07;;
38130;SDS011;23947;51.894;4.622;2023-03-01T08:56:30;19.92;;;11.05;;
38130;SDS011;23947;51.894;4.622;2023-03-01T08:58:56;17.77;;;9.48;;
38130;SDS011;23947;51.894;4.622;2023-03-01T09:01:22;17.27;;;10.27;;
38130;SDS011;23947;51.894;4.622;2023-03-01T09:03:48;16.48;;;9.48;;
38130;SDS011;23947;51.894;4.622;2023-03-01T09:06:14;16.10;;;8.88;;
38130;SDS011;23947;51.894;4.622;2023-03-01T09:08:41;21.50;;;12.40;;
38130;SDS011;23947;51.894;4.622;2023-03-01T09:11:11;14.80;;;7.57;;
38130;SDS011;23947;51.894;4.622;2023-03-01T09:13:38;16.63;;;7.93;;
38130;SDS011;23947;51.894;4.622;2023-03-01T09:16:04;13.02;;;7.22;;
38130;SDS011;23947;51.894;4.622;2023-03-01T09:18:33;15.30;;;8.07;;
38130;SDS011;23947;51.894;4.622;2023-03-01T09:21:07;16.65;;;7.30;;
38130;SDS011;23947;51.894;4.622;2023-03-01T09:23:36;14.70;;;7.22;;
38130;SDS011;23947;51.894;4.622;2023-03-01T09:26:06;13.55;;;7.90;;
38130;SDS011;23947;51.894;4.622;2023-03-01T09:28:33;11.90;;;6.35;;
38130;SDS011;23947;51.894;4.622;2023-03-01T09:31:00;12.82;;;6.88;;
38130;SDS011;23947;51.894;4.622;2023-03-01T09:33:30;14.70;;;7.80;;
38130;SDS011;23947;51.894;4.622;2023-03-01T09:36:00;12.90;;;7.05;;
38130;SDS011;23947;51.894;4.622;2023-03-01T09:38:30;12.88;;;6.78;;
38130;SDS011;23947;51.894;4.622;2023-03-01T09:40:56;10.75;;;6.10;;
38130;SDS011;23947;51.894;4.622;2023-03-01T09:43:31;10.15;;;6.18;;
38130;SDS011;23947;51.894;4.622;2023-03-01T09:46:03;12.50;;;5.88;;
38130;SDS011;23947;51.894;4.622;2023-03-01T09:48:33;13.80;;;5.68;;
38130;SDS011;23947;51.894;4.622;2023-03-01T09:51:09;27.55;;;12.60;;
38130;SDS011;23947;51.894;4.622;2023-03-01T09:53:42;12.35;;;5.60;;
38130;SDS011;23947;51.894;4.622;2023-03-01T09:56:13;9.10;;;4.95;;
38130;SDS011;23947;51.894;4.622;2023-03-01T10:09:51;7.63;;;4.22;;
38130;SDS011;23947;51.894;4.622;2023-03-01T10:12:22;17.13;;;6.50;;
38130;SDS011;23947;51.894;4.622;2023-03-01T10:14:54;18.50;;;6.60;;
38130;SDS011;23947;51.894;4.622;2023-03-01T10:22:44;9.02;;;4.43;;
38130;SDS011;23947;51.894;4.622;2023-03-01T10:25:15;11.38;;;5.55;;
38130;SDS011;23947;51.894;4.622;2023-03-01T10:27:53;7.72;;;3.95;;
38130;SDS011;23947;51.894;4.622;2023-03-01T10:30:40;36.10;;;15.30;;
38130;SDS011;23947;51.894;4.622;2023-03-01T10:33:22;13.90;;;6.65;;
38130;SDS011;23947;51.894;4.622;2023-03-01T10:35:49;41.08;;;17.40;;
38130;SDS011;23947;51.894;4.622;2023-03-01T10:38:16;11.93;;;4.55;;
38130;SDS011;23947;51.894;4.622;2023-03-01T10:40:53;7.97;;;3.60;;
38130;SDS011;23947;51.894;4.622;2023-03-01T10:43:30;12.40;;;4.97;;
38130;SDS011;23947;51.894;4.622;2023-03-01T10:49:18;9.30;;;4.28;;
38130;SDS011;23947;51.894;4.622;2023-03-01T10:51:44;12.57;;;4.93;;
38130;SDS011;23947;51.894;4.622;2023-03-01T10:54:15;8.07;;;3.67;;
38130;SDS011;23947;51.894;4.622;2023-03-01T10:59:26;9.05;;;3.65;;
38130;SDS011;23947;51.894;4.622;2023-03-01T11:04:59;16.90;;;7.20;;
38130;SDS011;23947;51.894;4.622;2023-03-01T11:07:25;8.00;;;3.60;;
38130;SDS011;23947;51.894;4.622;2023-03-01T11:09:51;7.38;;;3.10;;
38130;SDS011;23947;51.894;4.622;2023-03-01T11:12:17;9.48;;;4.03;;
38130;SDS011;23947;51.894;4.622;2023-03-01T11:14:47;7.32;;;3.22;;
38130;SDS011;23947;51.894;4.622;2023-03-01T11:17:17;6.40;;;2.80;;
38130;SDS011;23947;51.894;4.622;2023-03-01T11:22:32;6.18;;;2.72;;
38130;SDS011;23947;51.894;4.622;2023-03-01T11:25:00;7.90;;;3.40;;
38130;SDS011;23947;51.894;4.622;2023-03-01T11:27:36;10.57;;;5.13;;
38130;SDS011;23947;51.894;4.622;2023-03-01T11:30:51;6.93;;;3.33;;
38130;SDS011;23947;51.894;4.622;2023-03-01T11:36:05;7.47;;;2.70;;
38130;SDS011;23947;51.894;4.622;2023-03-01T11:38:30;8.07;;;3.00;;
38130;SDS011;23947;51.894;4.622;2023-03-01T11:41:00;10.05;;;3.22;;
38130;SDS011;23947;51.894;4.622;2023-03-01T11:57:04;7.32;;;3.95;;
38130;SDS011;23947;51.894;4.622;2023-03-01T12:06:03;7.57;;;4.03;;
38130;SDS011;23947;51.894;4.622;2023-03-01T12:20:40;6.75;;;2.90;;
38130;SDS011;23947;51.894;4.622;2023-03-01T12:22:58;8.95;;;3.42;;
38130;SDS011;23947;51.894;4.622;2023-03-01T12:28:18;11.00;;;3.60;;
38130;SDS011;23947;51.894;4.622;2023-03-01T12:33:41;8.55;;;3.65;;
38130;SDS011;23947;51.894;4.622;2023-03-01T12:48:10;7.13;;;2.83;;
38130;SDS011;23947;51.894;4.622;2023-03-01T12:50:42;5.75;;;2.97;;
38130;SDS011;23947;51.894;4.622;2023-03-01T12:53:54;7.75;;;2.75;;
38130;SDS011;23947;51.894;4.622;2023-03-01T12:56:03;6.20;;;2.95;;
38130;SDS011;23947;51.894;4.622;2023-03-01T13:15:37;11.30;;;3.60;;
38130;SDS011;23947;51.894;4.622;2023-03-01T13:31:10;7.72;;;3.38;;
38130;SDS011;23947;51.894;4.622;2023-03-01T13:33:58;7.93;;;3.17;;
38130;SDS011;23947;51.894;4.622;2023-03-01T13:39:38;6.97;;;3.35;;
38130;SDS011;23947;51.894;4.622;2023-03-01T13:41:54;7.43;;;3.50;;
38130;SDS011;23947;51.894;4.622;2023-03-01T13:49:26;6.72;;;2.45;;
38130;SDS011;23947;51.894;4.622;2023-03-01T13:51:54;7.10;;;2.85;;
38130;SDS011;23947;51.894;4.622;2023-03-01T13:54:24;7.95;;;3.78;;
38130;SDS011;23947;51.894;4.622;2023-03-01T13:56:54;5.22;;;2.33;;
38130;SDS011;23947;51.894;4.622;2023-03-01T13:59:22;8.32;;;2.55;;
38130;SDS011;23947;51.894;4.622;2023-03-01T14:01:51;6.57;;;2.78;;
38130;SDS011;23947;51.894;4.622;2023-03-01T14:04:25;7.45;;;2.50;;
38130;SDS011;23947;51.894;4.622;2023-03-01T14:09:42;7.35;;;2.45;;
38130;SDS011;23947;51.894;4.622;2023-03-01T14:20:21;8.75;;;2.10;;
38130;SDS011;23947;51.894;4.622;2023-03-01T14:23:19;7.75;;;1.90;;
38130;SDS011;23947;51.894;4.622;2023-03-01T14:25:55;8.43;;;1.95;;
38130;SDS011;23947;51.894;4.622;2023-03-01T14:28:27;6.50;;;1.70;;
38130;SDS011;23947;51.894;4.622;2023-03-01T14:30:55;5.80;;;1.83;;
38130;SDS011;23947;51.894;4.622;2023-03-01T14:33:32;6.28;;;2.20;;
38130;SDS011;23947;51.894;4.622;2023-03-01T14:36:05;4.95;;;1.67;;
38130;SDS011;23947;51.894;4.622;2023-03-01T14:41:14;7.82;;;2.10;;
38130;SDS011;23947;51.894;4.622;2023-03-01T14:43:51;6.50;;;2.17;;
38130;SDS011;23947;51.894;4.622;2023-03-01T14:46:26;5.03;;;1.83;;
38130;SDS011;23947;51.894;4.622;2023-03-01T14:49:19;4.82;;;1.80;;
38130;SDS011;23947;51.894;4.622;2023-03-01T14:51:58;5.30;;;1.90;;
38130;SDS011;23947;51.894;4.622;2023-03-01T14:54:27;4.45;;;1.80;;
38130;SDS011;23947;51.894;4.622;2023-03-01T14:57:02;5.18;;;1.65;;
38130;SDS011;23947;51.894;4.622;2023-03-01T14:59:28;6.32;;;2.13;;
38130;SDS011;23947;51.894;4.622;2023-03-01T15:01:57;5.25;;;2.15;;
38130;SDS011;23947;51.894;4.622;2023-03-01T15:04:24;6.57;;;2.40;;
38130;SDS011;23947;51.894;4.622;2023-03-01T15:06:55;7.03;;;2.55;;
38130;SDS011;23947;51.894;4.622;2023-03-01T15:09:29;5.25;;;1.95;;
38130;SDS011;23947;51.894;4.622;2023-03-01T15:11:58;6.95;;;2.30;;
38130;SDS011;23947;51.894;4.622;2023-03-01T15:14:25;5.75;;;2.40;;
38130;SDS011;23947;51.894;4.622;2023-03-01T15:17:27;9.13;;;3.10;;
38130;SDS011;23947;51.894;4.622;2023-03-01T15:20:01;5.20;;;1.52;;
38130;SDS011;23947;51.894;4.622;2023-03-01T15:22:29;8.10;;;2.17;;
38130;SDS011;23947;51.894;4.622;2023-03-01T15:24:55;12.15;;;5.25;;
38130;SDS011;23947;51.894;4.622;2023-03-01T15:27:22;7.68;;;2.47;;
38130;SDS011;23947;51.894;4.622;2023-03-01T15:29:59;6.45;;;2.95;;
38130;SDS011;23947;51.894;4.622;2023-03-01T15:32:31;7.95;;;3.28;;
38130;SDS011;23947;51.894;4.622;2023-03-01T15:34:58;7.80;;;2.15;;
38130;SDS011;23947;51.894;4.622;2023-03-01T15:37:38;7.10;;;3.22;;
38130;SDS011;23947;51.894;4.622;2023-03-01T15:40:19;11.05;;;3.30;;
38130;SDS011;23947;51.894;4.622;2023-03-01T15:42:56;12.98;;;7.38;;
38130;SDS011;23947;51.894;4.622;2023-03-01T15:45:25;7.63;;;2.50;;
38130;SDS011;23947;51.894;4.622;2023-03-01T15:52:48;7.30;;;2.35;;
38130;SDS011;23947;51.894;4.622;2023-03-01T15:55:22;6.55;;;2.33;;
38130;SDS011;23947;51.894;4.622;2023-03-01T15:57:50;8.50;;;2.42;;
38130;SDS011;23947;51.894;4.622;2023-03-01T16:00:43;7.72;;;2.10;;
38130;SDS011;23947;51.894;4.622;2023-03-01T16:03:11;6.22;;;2.38;;
38130;SDS011;23947;51.894;4.622;2023-03-01T16:05:37;7.75;;;3.10;;
38130;SDS011;23947;51.894;4.622;2023-03-01T16:08:03;5.13;;;2.25;;
38130;SDS011;23947;51.894;4.622;2023-03-01T16:10:34;9.95;;;3.63;;
38130;SDS011;23947;51.894;4.622;2023-03-01T16:13:00;8.52;;;2.92;;
38130;SDS011;23947;51.894;4.622;2023-03-01T16:15:30;6.78;;;2.30;;
38130;SDS011;23947;51.894;4.622;2023-03-01T16:17:59;6.93;;;2.20;;
38130;SDS011;23947;51.894;4.622;2023-03-01T16:20:25;7.60;;;2.65;;
38130;SDS011;23947;51.894;4.622;2023-03-01T16:22:52;9.55;;;4.32;;
38130;SDS011;23947;51.894;4.622;2023-03-01T16:25:18;14.23;;;6.97;;
38130;SDS011;23947;51.894;4.622;2023-03-01T16:27:46;8.18;;;2.30;;
38130;SDS011;23947;51.894;4.622;2023-03-01T16:30:14;7.97;;;2.58;;
38130;SDS011;23947;51.894;4.622;2023-03-01T16:32:43;6.22;;;2.40;;
38130;SDS011;23947;51.894;4.622;2023-03-01T16:35:11;12.60;;;4.32;;
38130;SDS011;23947;51.894;4.622;2023-03-01T16:37:38;15.73;;;6.55;;
38130;SDS011;23947;51.894;4.622;2023-03-01T16:40:05;25.65;;;8.70;;
38130;SDS011;23947;51.894;4.622;2023-03-01T16:42:36;7.97;;;2.85;;
38130;SDS011;23947;51.894;4.622;2023-03-01T16:45:03;9.68;;;3.00;;
38130;SDS011;23947;51.894;4.622;2023-03-01T16:47:29;7.15;;;2.65;;
38130;SDS011;23947;51.894;4.622;2023-03-01T16:49:55;7.57;;;2.78;;
38130;SDS011;23947;51.894;4.622;2023-03-01T16:52:21;6.53;;;2.47;;
38130;SDS011;23947;51.894;4.622;2023-03-01T16:54:47;25.70;;;12.25;;
38130;SDS011;23947;51.894;4.622;2023-03-01T16:57:13;52.60;;;20.10;;
38130;SDS011;23947;51.894;4.622;2023-03-01T16:59:39;8.27;;;2.97;;
38130;SDS011;23947;51.894;4.622;2023-03-01T17:02:05;7.07;;;2.92;;
38130;SDS011;23947;51.894;4.622;2023-03-01T17:04:35;7.25;;;2.30;;
38130;SDS011;23947;51.894;4.622;2023-03-01T17:07:01;20.30;;;7.28;;
38130;SDS011;23947;51.894;4.622;2023-03-01T17:09:26;15.15;;;6.82;;
38130;SDS011;23947;51.894;4.622;2023-03-01T17:11:52;8.20;;;3.20;;
38130;SDS011;23947;51.894;4.622;2023-03-01T17:14:19;7.97;;;2.90;;